Time;durP1;ratioP1;P1;durP2;ratioP2;P2;SDS_P1;SDS_P2;PMS_P1;PMS_P2;Temp;Humidity;BMP_temperature;BMP_pressure;BME280_temperature;BME280_humidity;BME280_pressure;Samples;Min_cycle;Max_cycle;Signal;HPM_P1;HPM_P2
2023/06/09 00:00:18;;;;;;;0.00;0.00;;;15.70;99.90;;;;;;5072090;28;20261;-63
2023/06/09 00:02:47;;;;;;;0.00;0.00;;;15.60;99.90;;;;;;5071945;28;20207;-63
2023/06/09 00:05:13;;;;;;;0.00;0.00;;;15.60;99.90;;;;;;5071599;28;20235;-63
2023/06/09 00:07:39;;;;;;;0.00;0.00;;;15.60;99.90;;;;;;5072069;28;20180;-63
2023/06/09 00:10:06;;;;;;;0.00;0.00;;;15.60;99.90;;;;;;5071928;28;20174;-63
2023/06/09 00:12:31;;;;;;;0.00;0.00;;;15.60;99.90;;;;;;5071156;28;20527;-63
2023/06/09 00:14:58;;;;;;;0.00;0.00;;;15.50;99.90;;;;;;5071491;28;20192;-63
2023/06/09 00:17:24;;;;;;;0.00;0.00;;;15.50;99.90;;;;;;5065847;28;20274;-63
2023/06/09 00:19:52;;;;;;;0.00;0.00;;;15.50;99.90;;;;;;5070413;28;20816;-63
2023/06/09 00:22:19;;;;;;;0.00;0.00;;;15.50;99.90;;;;;;5071738;28;20267;-63
2023/06/09 00:24:45;;;;;;;0.00;0.00;;;15.50;99.90;;;;;;5069998;28;20193;-63
2023/06/09 00:27:11;;;;;;;0.00;0.00;;;15.40;99.90;;;;;;5070619;28;20354;-64
2023/06/09 00:29:36;;;;;;;0.10;0.10;;;15.40;99.90;;;;;;5071468;28;20226;-63
2023/06/09 00:32:03;;;;;;;0.00;0.00;;;15.40;99.90;;;;;;5071651;28;20173;-63
2023/06/09 00:34:28;;;;;;;0.00;0.00;;;15.40;99.90;;;;;;5071452;28;20181;-63
2023/06/09 00:36:54;;;;;;;0.00;0.00;;;15.40;99.90;;;;;;5071328;28;20546;-63
2023/06/09 00:39:19;;;;;;;0.00;0.00;;;15.40;99.90;;;;;;5070631;28;20663;-63
2023/06/09 00:41:45;;;;;;;0.00;0.00;;;15.40;99.90;;;;;;5069554;28;20173;-63
2023/06/09 00:44:12;;;;;;;0.00;0.00;;;15.40;99.90;;;;;;5071411;28;20172;-63
2023/06/09 00:46:38;;;;;;;0.20;0.20;;;15.40;99.90;;;;;;5071327;28;20234;-64
2023/06/09 00:49:04;;;;;;;0.43;0.43;;;15.40;99.90;;;;;;5070840;28;20199;-63
2023/06/09 00:51:32;;;;;;;0.00;0.00;;;15.40;99.90;;;;;;5070295;28;20700;-63
2023/06/09 00:53:58;;;;;;;0.00;0.00;;;15.40;99.90;;;;;;5070995;28;20184;-62
2023/06/09 00:56:24;;;;;;;0.00;0.00;;;15.30;99.90;;;;;;5063900;28;20188;-62
2023/06/09 00:58:50;;;;;;;0.00;0.00;;;15.30;99.90;;;;;;5070814;28;20208;-62
2023/06/09 01:01:16;;;;;;;0.00;0.00;;;15.30;99.90;;;;;;5069004;28;20283;-62
2023/06/09 01:03:42;;;;;;;0.10;0.10;;;15.30;99.90;;;;;;5070717;28;20237;-62
2023/06/09 01:06:26;;;;;;;0.00;0.00;;;15.30;99.90;;;;;;5069526;28;20203;-63
2023/06/09 01:09:02;;;;;;;0.00;0.00;;;15.20;99.90;;;;;;5070410;28;20181;-62
2023/06/09 01:11:49;;;;;;;0.10;0.10;;;15.20;99.90;;;;;;5070144;28;20176;-62
2023/06/09 01:14:23;;;;;;;0.00;0.00;;;15.20;99.90;;;;;;5070517;28;20659;-62
2023/06/09 01:17:07;;;;;;;0.00;0.00;;;15.20;99.90;;;;;;5070483;28;20214;-62
2023/06/09 01:19:40;;;;;;;0.00;0.00;;;15.20;99.90;;;;;;5069593;28;20624;-62
2023/06/09 01:22:22;;;;;;;0.00;0.00;;;15.10;99.90;;;;;;5070187;28;20180;-61
2023/06/09 01:25:17;;;;;;;0.00;0.00;;;15.10;99.90;;;;;;5069425;28;20267;-62
2023/06/09 01:27:45;;;;;;;0.00;0.00;;;15.10;99.90;;;;;;5069989;28;20751;-62
2023/06/09 01:30:13;;;;;;;0.10;0.10;;;15.00;99.90;;;;;;5070244;28;20272;-61
2023/06/09 01:32:40;;;;;;;0.00;0.00;;;14.90;99.90;;;;;;5070397;28;20181;-62
2023/06/09 01:35:07;;;;;;;0.17;0.17;;;14.90;99.90;;;;;;5070017;28;20217;-61
2023/06/09 01:37:33;;;;;;;0.00;0.00;;;14.90;99.90;;;;;;5069240;28;20460;-62
2023/06/09 01:39:59;;;;;;;0.00;0.00;;;14.80;99.90;;;;;;5070087;28;20220;-62
2023/06/09 01:42:25;;;;;;;0.00;0.00;;;14.80;99.90;;;;;;5070252;28;20208;-62
2023/06/09 01:44:50;;;;;;;0.00;0.00;;;14.80;99.90;;;;;;5069621;28;20235;-62
2023/06/09 01:47:18;;;;;;;0.00;0.00;;;14.80;99.90;;;;;;5070311;28;20176;-62
2023/06/09 01:49:54;;;;;;;0.10;0.10;;;14.80;99.90;;;;;;5069564;28;20204;-62
2023/06/09 01:52:47;;;;;;;0.00;0.00;;;14.80;99.90;;;;;;5070424;28;20263;-62
2023/06/09 01:55:19;;;;;;;0.00;0.00;;;14.80;99.90;;;;;;5063877;28;20193;-63
2023/06/09 01:57:51;;;;;;;0.00;0.00;;;14.80;99.90;;;;;;5069625;28;20176;-62
2023/06/09 02:00:17;;;;;;;0.00;0.00;;;14.80;99.90;;;;;;5070023;28;20215;-63
2023/06/09 02:02:46;;;;;;;0.20;0.20;;;14.80;99.90;;;;;;5069892;28;20709;-63
2023/06/09 02:05:13;;;;;;;0.08;0.08;;;14.80;99.90;;;;;;5069904;28;20655;-63
2023/06/09 02:07:41;;;;;;;0.00;0.00;;;14.80;99.90;;;;;;5069114;28;20580;-63
2023/06/09 02:10:09;;;;;;;0.00;0.00;;;14.80;99.90;;;;;;5070271;28;20180;-63
2023/06/09 02:12:34;;;;;;;0.00;0.00;;;14.80;99.90;;;;;;5070166;28;20235;-63
2023/06/09 02:15:02;;;;;;;0.00;0.00;;;14.80;99.90;;;;;;5070004;28;20173;-63
2023/06/09 02:17:28;;;;;;;0.00;0.00;;;14.80;99.90;;;;;;5069667;28;20188;-63
2023/06/09 02:19:54;;;;;;;0.00;0.00;;;14.70;99.90;;;;;;5069835;28;20200;-63
2023/06/09 02:22:20;;;;;;;0.10;0.10;;;14.70;99.90;;;;;;5069770;28;20652;-62
2023/06/09 02:24:45;;;;;;;0.00;0.00;;;14.70;99.90;;;;;;5070032;28;20185;-63
2023/06/09 02:27:11;;;;;;;0.00;0.00;;;14.70;99.90;;;;;;5070043;28;20221;-63
2023/06/09 02:29:36;;;;;;;0.20;0.20;;;14.70;99.90;;;;;;5069338;28;20177;-63
2023/06/09 02:32:02;;;;;;;0.00;0.00;;;14.70;99.90;;;;;;5070253;28;20186;-63
2023/06/09 02:34:30;;;;;;;0.10;0.10;;;14.70;99.90;;;;;;5070075;28;20671;-62
2023/06/09 02:36:58;;;;;;;0.00;0.00;;;14.70;99.90;;;;;;5071379;28;20185;-62
2023/06/09 02:39:23;;;;;;;0.00;0.00;;;14.70;99.90;;;;;;5073658;28;20543;-62
2023/06/09 02:41:49;;;;;;;0.00;0.00;;;14.70;99.90;;;;;;5073008;28;20188;-63
2023/06/09 02:44:15;;;;;;;0.00;0.00;;;14.70;99.90;;;;;;5073568;28;20184;-62
2023/06/09 02:46:42;;;;;;;0.00;0.00;;;14.70;99.90;;;;;;5073829;28;20181;-62
2023/06/09 02:49:07;;;;;;;0.00;0.00;;;14.70;99.90;;;;;;5073553;28;20286;-62
2023/06/09 02:51:33;;;;;;;0.00;0.00;;;14.60;99.90;;;;;;5073535;28;20630;-62
2023/06/09 02:53:58;;;;;;;0.00;0.00;;;14.60;99.90;;;;;;5072596;28;20196;-62
2023/06/09 02:56:25;;;;;;;0.00;0.00;;;14.60;99.90;;;;;;5065642;28;20279;-63
2023/06/09 02:58:51;;;;;;;0.00;0.00;;;14.60;99.90;;;;;;5073005;28;20263;-63
2023/06/09 03:01:17;;;;;;;0.00;0.00;;;14.60;99.90;;;;;;5073187;28;20612;-62
2023/06/09 03:03:44;;;;;;;0.00;0.00;;;14.50;99.90;;;;;;5071195;28;20173;-63
2023/06/09 03:06:13;;;;;;;0.00;0.00;;;14.50;99.90;;;;;;5057600;28;20216;-63
2023/06/09 03:08:39;;;;;;;0.00;0.00;;;14.50;99.90;;;;;;5072815;28;20230;-63
2023/06/09 03:11:04;;;;;;;0.00;0.00;;;14.50;99.90;;;;;;5072929;28;20181;-63
2023/06/09 03:13:30;;;;;;;0.00;0.00;;;14.50;99.90;;;;;;5073042;28;20192;-63
2023/06/09 03:15:56;;;;;;;0.00;0.00;;;14.50;99.90;;;;;;5072118;28;20550;-63
2023/06/09 03:18:22;;;;;;;0.00;0.00;;;14.50;99.90;;;;;;5072941;28;20181;-64
2023/06/09 03:20:48;;;;;;;0.00;0.00;;;14.40;99.90;;;;;;5071468;28;20237;-63
2023/06/09 03:23:14;;;;;;;2.15;0.15;;;14.50;99.90;;;;;;5072451;28;20177;-62
2023/06/09 03:25:40;;;;;;;0.00;0.00;;;14.50;99.90;;;;;;5072539;28;20553;-63
2023/06/09 03:28:06;;;;;;;0.00;0.00;;;14.60;99.90;;;;;;5072100;28;20220;-63
2023/06/09 03:30:31;;;;;;;0.00;0.00;;;14.40;99.90;;;;;;5072840;28;20230;-63
2023/06/09 03:32:57;;;;;;;0.03;0.03;;;14.50;99.90;;;;;;5072559;28;20231;-63
2023/06/09 03:35:22;;;;;;;0.00;0.00;;;14.50;99.90;;;;;;5072689;28;20191;-63
2023/06/09 03:37:48;;;;;;;0.00;0.00;;;14.50;99.90;;;;;;5072589;28;20223;-63
2023/06/09 03:40:15;;;;;;;0.50;0.50;;;14.50;99.90;;;;;;5072284;28;20217;-63
2023/06/09 03:42:40;;;;;;;0.00;0.00;;;14.60;99.90;;;;;;5072705;28;20196;-63
2023/06/09 03:45:06;;;;;;;0.13;0.13;;;14.60;99.90;;;;;;5072250;28;20656;-62
2023/06/09 03:47:32;;;;;;;0.00;0.00;;;14.60;99.90;;;;;;5071575;28;20173;-63
2023/06/09 03:49:57;;;;;;;0.20;0.20;;;14.60;99.90;;;;;;5069810;28;20671;-63
2023/06/09 03:52:26;;;;;;;0.17;0.17;;;14.50;99.90;;;;;;5072116;28;20184;-62
2023/06/09 03:54:51;;;;;;;0.10;0.10;;;14.50;99.90;;;;;;5071918;28;20177;-63
2023/06/09 03:57:17;;;;;;;0.00;0.00;;;14.50;99.90;;;;;;5071952;28;20334;-63
2023/06/09 03:59:42;;;;;;;0.00;0.00;;;14.50;99.90;;;;;;5072076;28;20684;-63
2023/06/09 04:02:08;;;;;;;0.08;0.08;;;14.60;99.90;;;;;;5056751;28;20270;-63
2023/06/09 04:04:34;;;;;;;0.00;0.00;;;14.60;99.90;;;;;;5068496;28;20526;-63
2023/06/09 04:06:59;;;;;;;0.03;0.03;;;14.70;99.90;;;;;;5071526;28;20195;-62
2023/06/09 04:09:26;;;;;;;0.00;0.00;;;14.70;99.90;;;;;;5065535;28;20314;-63
2023/06/09 04:11:52;;;;;;;0.00;0.00;;;14.80;99.90;;;;;;5071056;28;20168;-63
2023/06/09 04:14:17;;;;;;;0.10;0.10;;;14.90;99.90;;;;;;5071013;28;20172;-63
2023/06/09 04:16:43;;;;;;;0.00;0.00;;;14.90;99.90;;;;;;5071600;28;20169;-63
2023/06/09 04:19:08;;;;;;;0.00;0.00;;;15.10;99.90;;;;;;5071725;28;20219;-63
2023/06/09 04:21:35;;;;;;;0.00;0.00;;;15.30;99.90;;;;;;5071600;28;20223;-63
2023/06/09 04:24:01;;;;;;;0.10;0.10;;;15.60;99.90;;;;;;5070819;28;20592;-63
2023/06/09 04:26:27;;;;;;;0.00;0.00;;;15.80;99.90;;;;;;5070103;28;20303;-63
2023/06/09 04:28:53;;;;;;;0.00;0.00;;;16.10;99.90;;;;;;5071306;28;20165;-63
2023/06/09 04:31:23;;;;;;;0.00;0.00;;;16.40;99.90;;;;;;5071171;28;20191;-63
2023/06/09 04:33:53;;;;;;;0.00;0.00;;;16.70;99.90;;;;;;5071216;28;20184;-63
2023/06/09 04:36:20;;;;;;;0.00;0.00;;;17.00;99.90;;;;;;5070854;28;20540;-63
2023/06/09 04:38:46;;;;;;;0.00;0.00;;;17.40;99.90;;;;;;5071080;28;20173;-63
2023/06/09 04:41:12;;;;;;;0.00;0.00;;;17.80;99.90;;;;;;5071102;28;20250;-63
2023/06/09 04:43:39;;;;;;;0.00;0.00;;;18.10;99.90;;;;;;5071099;28;20181;-63
2023/06/09 04:46:06;;;;;;;0.35;0.35;;;18.30;99.90;;;;;;5069710;28;20181;-63
2023/06/09 04:48:34;;;;;;;0.00;0.00;;;18.50;99.90;;;;;;5070332;28;20534;-63
2023/06/09 04:51:01;;;;;;;0.00;0.00;;;18.70;99.90;;;;;;5070739;28;20169;-63
2023/06/09 04:53:29;;;;;;;0.00;0.00;;;18.90;99.90;;;;;;5070929;28;20185;-63
2023/06/09 04:55:56;;;;;;;0.00;0.00;;;19.10;99.90;;;;;;5070684;28;20607;-63
2023/06/09 04:58:21;;;;;;;0.15;0.08;;;19.40;99.90;;;;;;5069953;28;20652;-63
2023/06/09 05:00:47;;;;;;;0.00;0.00;;;19.60;99.90;;;;;;5070026;28;20284;-63
2023/06/09 05:03:13;;;;;;;0.00;0.00;;;19.90;99.90;;;;;;5070375;28;20271;-62
2023/06/09 05:05:42;;;;;;;0.00;0.00;;;20.30;99.90;;;;;;5070244;28;20556;-63
2023/06/09 05:08:09;;;;;;;0.00;0.00;;;20.60;99.90;;;;;;5069924;28;20177;-65
2023/06/09 05:10:34;;;;;;;0.00;0.00;;;20.70;99.90;;;;;;5069669;28;20208;-63
2023/06/09 05:13:00;;;;;;;0.00;0.00;;;20.80;99.90;;;;;;5071072;28;20258;-63
2023/06/09 05:15:27;;;;;;;0.00;0.00;;;21.00;99.90;;;;;;5070363;28;20268;-63
2023/06/09 05:17:53;;;;;;;0.00;0.00;;;21.20;99.90;;;;;;5070352;28;20184;-63
2023/06/09 05:20:19;;;;;;;0.00;0.00;;;21.30;99.90;;;;;;5070790;28;20220;-64
2023/06/09 05:22:45;;;;;;;0.00;0.00;;;21.20;99.90;;;;;;5070860;28;20337;-63
2023/06/09 05:25:13;;;;;;;0.10;0.10;;;21.30;99.90;;;;;;5070956;28;20180;-63
2023/06/09 05:27:38;;;;;;;0.00;0.00;;;21.30;99.90;;;;;;5070192;28;20217;-63
2023/06/09 05:30:06;;;;;;;0.00;0.00;;;21.40;99.90;;;;;;5070710;28;20530;-64
2023/06/09 05:32:32;;;;;;;0.00;0.00;;;21.60;99.90;;;;;;5069591;28;20180;-64
2023/06/09 05:34:57;;;;;;;0.00;0.00;;;21.90;99.90;;;;;;5069978;28;20191;-64
2023/06/09 05:37:23;;;;;;;0.00;0.00;;;22.20;99.90;;;;;;5069803;28;20185;-64
2023/06/09 05:39:48;;;;;;;0.00;0.00;;;22.60;99.60;;;;;;5069575;28;20213;-62
2023/06/09 05:42:15;;;;;;;0.00;0.00;;;23.00;99.20;;;;;;5070180;28;20195;-61
2023/06/09 05:44:40;;;;;;;0.00;0.00;;;23.60;98.50;;;;;;5069842;28;20180;-61
2023/06/09 05:47:06;;;;;;;0.00;0.00;;;24.10;97.50;;;;;;5069754;28;20165;-60
2023/06/09 05:49:32;;;;;;;0.00;0.00;;;24.50;96.60;;;;;;5070145;28;20717;-60
2023/06/09 05:51:57;;;;;;;0.00;0.00;;;25.00;96.00;;;;;;5070115;28;20176;-60
2023/06/09 05:54:24;;;;;;;0.00;0.00;;;25.50;94.90;;;;;;5069997;28;20187;-63
2023/06/09 05:56:49;;;;;;;0.00;0.00;;;25.90;93.40;;;;;;5069350;28;20184;-62
2023/06/09 05:59:15;;;;;;;0.00;0.00;;;26.40;92.30;;;;;;5070101;28;20285;-62
2023/06/09 06:01:41;;;;;;;0.00;0.00;;;26.80;91.30;;;;;;5070344;28;20192;-62
2023/06/09 06:04:08;;;;;;;0.00;0.00;;;27.00;89.70;;;;;;5070357;28;20216;-62
2023/06/09 06:06:34;;;;;;;0.00;0.00;;;27.20;88.50;;;;;;5069930;28;20663;-62
2023/06/09 06:08:59;;;;;;;0.00;0.00;;;27.30;87.20;;;;;;5055781;28;20193;-62
2023/06/09 06:11:25;;;;;;;0.00;0.00;;;27.50;85.90;;;;;;5051514;28;20573;-62
2023/06/09 06:13:51;;;;;;;0.00;0.00;;;27.70;85.40;;;;;;5054294;28;20574;-62
2023/06/09 06:16:16;;;;;;;0.00;0.00;;;28.00;83.90;;;;;;5069586;28;20210;-62
2023/06/09 06:18:42;;;;;;;0.00;0.00;;;28.20;82.80;;;;;;5074540;28;20505;-62
2023/06/09 06:21:07;;;;;;;0.00;0.00;;;28.50;81.00;;;;;;5074098;28;20226;-62
2023/06/09 06:23:33;;;;;;;0.00;0.00;;;28.80;79.70;;;;;;5073822;28;20214;-62
2023/06/09 06:25:59;;;;;;;0.00;0.00;;;29.10;79.10;;;;;;5073835;28;20188;-61
2023/06/09 06:28:24;;;;;;;0.38;0.38;;;29.40;76.70;;;;;;5074172;28;20169;-60
2023/06/09 06:30:50;;;;;;;0.00;0.00;;;29.80;75.40;;;;;;5074014;28;20255;-60
2023/06/09 06:33:16;;;;;;;0.15;0.10;;;30.10;72.20;;;;;;5073961;28;20256;-60
2023/06/09 06:35:42;;;;;;;0.00;0.00;;;30.40;71.60;;;;;;5074134;28;20176;-60
2023/06/09 06:38:07;;;;;;;0.00;0.00;;;30.80;70.60;;;;;;5074011;28;20226;-60
2023/06/09 06:40:33;;;;;;;0.00;0.00;;;31.10;68.60;;;;;;5073754;28;20212;-60
2023/06/09 06:42:58;;;;;;;0.00;0.00;;;31.30;66.50;;;;;;5073642;28;20172;-61
2023/06/09 06:45:26;;;;;;;0.00;0.00;;;31.20;66.40;;;;;;5073867;28;20189;-60
2023/06/09 06:47:53;;;;;;;0.00;0.00;;;31.40;65.80;;;;;;5073793;28;20188;-61
2023/06/09 06:50:18;;;;;;;0.00;0.00;;;31.70;65.00;;;;;;5073198;28;20187;-60
2023/06/09 06:52:45;;;;;;;0.00;0.00;;;31.90;64.00;;;;;;5073308;28;20176;-60
2023/06/09 06:55:10;;;;;;;0.00;0.00;;;32.10;63.30;;;;;;5073639;28;20709;-62
2023/06/09 06:57:37;;;;;;;0.00;0.00;;;32.10;61.10;;;;;;5073480;28;20176;-61
2023/06/09 07:00:13;;;;;;;0.03;0.03;;;32.10;61.60;;;;;;5073375;28;20690;-62
2023/06/09 07:02:39;;;;;;;0.00;0.00;;;32.00;61.30;;;;;;5053251;28;20188;-61
2023/06/09 07:05:06;;;;;;;0.00;0.00;;;32.30;61.20;;;;;;5069874;28;20184;-61
2023/06/09 07:07:32;;;;;;;0.00;0.00;;;32.40;61.30;;;;;;5070314;28;20487;-61
2023/06/09 07:09:57;;;;;;;0.00;0.00;;;32.60;59.80;;;;;;5065207;28;20168;-61
2023/06/09 07:12:23;;;;;;;0.00;0.00;;;32.50;59.60;;;;;;5072142;28;20180;-63
2023/06/09 07:14:49;;;;;;;0.00;0.00;;;32.10;59.10;;;;;;5072066;28;20251;-62
2023/06/09 07:17:14;;;;;;;0.00;0.00;;;32.00;60.30;;;;;;5072888;28;20188;-61
2023/06/09 07:19:40;;;;;;;0.00;0.00;;;32.10;61.00;;;;;;5073534;28;20275;-61
2023/06/09 07:22:05;;;;;;;0.00;0.00;;;31.80;60.60;;;;;;5073296;28;20541;-61
2023/06/09 07:24:31;;;;;;;0.10;0.10;;;31.50;61.90;;;;;;5073676;28;20180;-61
2023/06/09 07:26:56;;;;;;;0.00;0.00;;;31.60;61.80;;;;;;5072968;28;20285;-61
2023/06/09 07:29:22;;;;;;;0.00;0.00;;;31.50;60.80;;;;;;5073374;28;20184;-61
2023/06/09 07:31:48;;;;;;;0.00;0.00;;;31.60;60.80;;;;;;5073113;28;20295;-60
2023/06/09 07:34:14;;;;;;;0.00;0.00;;;31.50;60.50;;;;;;5073476;28;20259;-61
2023/06/09 07:36:40;;;;;;;0.05;0.05;;;31.10;60.20;;;;;;5073215;28;20183;-61
2023/06/09 07:39:06;;;;;;;0.00;0.00;;;30.70;61.70;;;;;;5073300;28;20180;-61
2023/06/09 07:41:31;;;;;;;0.00;0.00;;;30.50;63.00;;;;;;5073191;28;20184;-62
2023/06/09 07:43:58;;;;;;;0.00;0.00;;;30.60;63.00;;;;;;5072988;28;20244;-62
2023/06/09 07:46:24;;;;;;;0.00;0.00;;;30.80;61.90;;;;;;5073226;28;20230;-62
2023/06/09 07:48:49;;;;;;;0.00;0.00;;;30.80;63.40;;;;;;5073221;28;20173;-62
2023/06/09 07:51:16;;;;;;;0.00;0.00;;;30.90;61.70;;;;;;5072949;28;20546;-62
2023/06/09 07:53:42;;;;;;;0.00;0.00;;;31.20;62.50;;;;;;5072938;28;20176;-62
2023/06/09 07:56:08;;;;;;;0.00;0.00;;;31.60;61.80;;;;;;5072690;28;20188;-62
2023/06/09 07:58:34;;;;;;;0.00;0.00;;;31.90;60.90;;;;;;5073057;28;20183;-62
2023/06/09 08:00:59;;;;;;;0.00;0.00;;;32.20;60.80;;;;;;5072549;28;20266;-62
2023/06/09 08:03:25;;;;;;;0.00;0.00;;;32.20;59.60;;;;;;5073130;28;20176;-62
2023/06/09 08:05:51;;;;;;;0.08;0.05;;;32.20;60.30;;;;;;5072356;28;20184;-66
2023/06/09 08:08:16;;;;;;;0.00;0.00;;;32.30;58.60;;;;;;5067325;28;20196;-63
2023/06/09 08:10:42;;;;;;;0.00;0.00;;;32.50;60.20;;;;;;5070293;28;20191;-63
2023/06/09 08:13:08;;;;;;;0.00;0.00;;;32.60;58.60;;;;;;5072238;28;20230;-63
2023/06/09 08:15:33;;;;;;;0.45;0.45;;;32.70;58.70;;;;;;5071126;28;20267;-63
2023/06/09 08:17:59;;;;;;;0.00;0.00;;;32.80;58.40;;;;;;5072382;28;20172;-63
2023/06/09 08:20:24;;;;;;;0.05;0.05;;;32.80;57.80;;;;;;5072409;28;20311;-65
2023/06/09 08:22:50;;;;;;;0.00;0.00;;;32.90;57.00;;;;;;5072509;28;20169;-62
2023/06/09 08:25:16;;;;;;;0.00;0.00;;;33.00;57.30;;;;;;5072701;28;20701;-63
2023/06/09 08:27:41;;;;;;;0.00;0.00;;;33.00;57.30;;;;;;5071724;28;20633;-63
2023/06/09 08:30:08;;;;;;;0.00;0.00;;;32.90;57.00;;;;;;5072238;28;20246;-64
2023/06/09 08:32:33;;;;;;;0.08;0.08;;;32.60;57.80;;;;;;5072280;28;20280;-63
2023/06/09 08:35:06;;;;;;;0.73;0.10;;;32.50;57.70;;;;;;5071173;28;20709;-63
2023/06/09 08:37:32;;;;;;;0.00;0.00;;;32.40;57.90;;;;;;5072381;28;20237;-64
2023/06/09 08:40:00;;;;;;;0.00;0.00;;;32.30;58.00;;;;;;5071025;28;20264;-63
2023/06/09 08:42:26;;;;;;;0.00;0.00;;;32.20;57.30;;;;;;5070955;28;20537;-63
2023/06/09 08:45:01;;;;;;;0.00;0.00;;;32.00;57.70;;;;;;5071836;28;20706;-64
2023/06/09 08:47:27;;;;;;;0.00;0.00;;;31.90;59.20;;;;;;5071807;28;20187;-63
2023/06/09 08:49:57;;;;;;;0.60;0.25;;;31.80;58.20;;;;;;5071809;28;20559;-63
2023/06/09 08:52:26;;;;;;;0.00;0.00;;;31.70;58.30;;;;;;5072212;28;20176;-63
2023/06/09 08:54:54;;;;;;;0.00;0.00;;;31.70;58.30;;;;;;5071917;28;20211;-64
2023/06/09 08:57:20;;;;;;;0.00;0.00;;;31.70;58.20;;;;;;5071685;28;20299;-63
2023/06/09 08:59:50;;;;;;;0.10;0.10;;;31.70;57.70;;;;;;5071272;28;20209;-64
2023/06/09 09:02:16;;;;;;;0.20;0.20;;;31.70;57.90;;;;;;5071322;28;20184;-64
2023/06/09 09:04:42;;;;;;;0.00;0.00;;;31.70;58.30;;;;;;5071371;28;20173;-64
2023/06/09 09:07:09;;;;;;;0.00;0.00;;;31.40;57.80;;;;;;5071426;28;20242;-64
2023/06/09 09:09:35;;;;;;;0.00;0.00;;;31.10;59.00;;;;;;5071115;28;20329;-63
2023/06/09 09:12:05;;;;;;;0.00;0.00;;;30.80;59.70;;;;;;5066929;28;20288;-64
2023/06/09 09:14:31;;;;;;;0.00;0.00;;;30.60;59.40;;;;;;5051584;28;20254;-63
2023/06/09 09:16:56;;;;;;;0.00;0.00;;;30.40;60.40;;;;;;5064099;28;20216;-63
2023/06/09 09:19:29;;;;;;;0.00;0.00;;;30.30;60.80;;;;;;5091692;28;20598;-63
2023/06/09 09:21:56;;;;;;;0.00;0.00;;;30.30;60.70;;;;;;5091458;28;20533;-63
2023/06/09 09:24:32;;;;;;;0.08;0.00;;;30.30;60.70;;;;;;5091656;28;20176;-64
2023/06/09 09:26:57;;;;;;;0.00;0.00;;;30.40;62.10;;;;;;5091275;28;20219;-64
2023/06/09 09:29:27;;;;;;;0.00;0.00;;;30.50;60.70;;;;;;5087212;28;20173;-65
2023/06/09 09:31:58;;;;;;;0.00;0.00;;;30.60;61.20;;;;;;5070098;28;20549;-63
2023/06/09 09:34:25;;;;;;;0.00;0.00;;;30.70;59.70;;;;;;5070644;28;20188;-63
2023/06/09 09:36:55;;;;;;;0.00;0.00;;;31.00;60.50;;;;;;5070788;28;20227;-63
2023/06/09 09:39:21;;;;;;;0.00;0.00;;;31.30;60.30;;;;;;5070733;28;20208;-63
2023/06/09 09:42:10;;;;;;;0.00;0.00;;;31.60;60.20;;;;;;5069677;28;20609;-64
2023/06/09 09:44:40;;;;;;;0.00;0.00;;;31.70;59.00;;;;;;5070349;28;20195;-63
2023/06/09 09:47:08;;;;;;;0.00;0.00;;;31.70;58.30;;;;;;5069643;28;20502;-63
2023/06/09 09:49:34;;;;;;;0.00;0.00;;;31.80;59.40;;;;;;5069870;28;20211;-63
2023/06/09 09:52:00;;;;;;;0.00;0.00;;;32.10;59.70;;;;;;5070226;28;20177;-62
2023/06/09 09:54:29;;;;;;;0.00;0.00;;;32.20;56.60;;;;;;5070436;28;20187;-62
2023/06/09 09:56:57;;;;;;;0.00;0.00;;;32.00;56.40;;;;;;5070519;28;20215;-64
2023/06/09 09:59:24;;;;;;;0.00;0.00;;;32.00;56.30;;;;;;5070605;28;20257;-66
2023/06/09 10:01:54;;;;;;;0.00;0.00;;;31.90;55.30;;;;;;5069456;28;20195;-62
2023/06/09 10:04:23;;;;;;;0.00;0.00;;;32.00;55.40;;;;;;5069713;28;20196;-62
2023/06/09 10:06:58;;;;;;;0.00;0.00;;;32.00;55.00;;;;;;5070278;28;20188;-63
2023/06/09 10:09:25;;;;;;;0.00;0.00;;;32.00;56.40;;;;;;5069538;28;20528;-63
2023/06/09 10:11:54;;;;;;;0.10;0.10;;;31.90;56.70;;;;;;5075835;28;20173;-63
2023/06/09 10:14:20;;;;;;;0.00;0.00;;;32.20;56.50;;;;;;5074908;28;20171;-62
2023/06/09 10:16:47;;;;;;;0.00;0.00;;;32.60;54.90;;;;;;5071144;28;20261;-63
2023/06/09 10:19:16;;;;;;;0.00;0.00;;;33.00;55.30;;;;;;5069575;28;20262;-63
2023/06/09 10:21:42;;;;;;;0.00;0.00;;;33.40;54.40;;;;;;5069987;28;20177;-63
2023/06/09 10:24:08;;;;;;;0.00;0.00;;;33.50;51.50;;;;;;5070151;28;20283;-63
2023/06/09 10:26:36;;;;;;;0.00;0.00;;;33.50;51.90;;;;;;5076832;28;20220;-63
2023/06/09 10:29:09;;;;;;;0.00;0.00;;;33.40;51.90;;;;;;5077000;28;20190;-64
2023/06/09 10:31:40;;;;;;;0.00;0.00;;;33.30;51.10;;;;;;5069718;28;20675;-64
2023/06/09 10:34:07;;;;;;;0.00;0.00;;;33.00;50.50;;;;;;5068929;28;20199;-63
2023/06/09 10:36:38;;;;;;;0.00;0.00;;;32.70;51.20;;;;;;5070340;28;20184;-64
2023/06/09 10:39:22;;;;;;;0.00;0.00;;;32.60;52.20;;;;;;5070213;28;20697;-63
2023/06/09 10:42:08;;;;;;;0.00;0.00;;;32.30;51.20;;;;;;5070448;28;20271;-63
2023/06/09 10:45:06;;;;;;;0.00;0.00;;;31.80;52.40;;;;;;5070464;28;20184;-63
2023/06/09 10:47:49;;;;;;;0.20;0.20;;;31.60;51.50;;;;;;5070354;28;20168;-64
2023/06/09 10:50:30;;;;;;;0.00;0.00;;;31.50;52.40;;;;;;5070243;28;20180;-63
2023/06/09 10:52:57;;;;;;;0.00;0.00;;;31.20;52.50;;;;;;5070079;28;20173;-63
2023/06/09 10:55:27;;;;;;;0.00;0.00;;;31.00;54.20;;;;;;5069080;28;20192;-63
2023/06/09 10:57:54;;;;;;;0.00;0.00;;;31.00;54.60;;;;;;5071915;28;20269;-64
2023/06/09 11:00:21;;;;;;;0.00;0.00;;;31.30;53.40;;;;;;5073885;28;20709;-63
2023/06/09 11:02:52;;;;;;;0.00;0.00;;;31.40;53.00;;;;;;5073815;28;20168;-63
2023/06/09 11:05:19;;;;;;;0.17;0.10;;;31.50;53.30;;;;;;5073734;28;20180;-63
2023/06/09 11:08:02;;;;;;;0.00;0.00;;;31.30;52.60;;;;;;5073491;28;20195;-63
2023/06/09 11:10:28;;;;;;;0.00;0.00;;;31.10;52.20;;;;;;5073876;28;20430;-64
2023/06/09 11:12:55;;;;;;;0.00;0.00;;;31.10;53.00;;;;;;5073599;28;20165;-63
2023/06/09 11:15:21;;;;;;;0.00;0.00;;;31.00;52.80;;;;;;5073764;28;20194;-63
2023/06/09 11:17:53;;;;;;;0.00;0.00;;;30.90;53.90;;;;;;5073574;28;20169;-63
2023/06/09 11:20:22;;;;;;;0.13;0.13;;;30.80;54.20;;;;;;5073613;28;20216;-63
2023/06/09 11:22:48;;;;;;;0.00;0.00;;;31.00;54.50;;;;;;5073298;28;20184;-63
2023/06/09 11:25:19;;;;;;;0.00;0.00;;;31.20;53.40;;;;;;5073350;28;20172;-63
2023/06/09 11:27:55;;;;;;;0.00;0.00;;;31.30;53.30;;;;;;5073128;28;20722;-63
2023/06/09 11:30:23;;;;;;;0.00;0.00;;;31.60;53.80;;;;;;5073562;28;20195;-63
2023/06/09 11:33:03;;;;;;;0.00;0.00;;;31.60;51.70;;;;;;5073321;28;20599;-64
2023/06/09 11:35:28;;;;;;;0.00;0.00;;;31.40;51.80;;;;;;5073490;28;20172;-63
2023/06/09 11:37:59;;;;;;;0.00;0.00;;;31.30;52.00;;;;;;5072988;28;20539;-63
2023/06/09 11:40:25;;;;;;;0.00;0.00;;;31.50;52.00;;;;;;5073278;28;20291;-63
2023/06/09 11:42:51;;;;;;;0.00;0.00;;;31.80;52.40;;;;;;5072912;28;20276;-63
2023/06/09 11:45:17;;;;;;;0.00;0.00;;;32.20;52.00;;;;;;5073154;28;20298;-63
2023/06/09 11:47:45;;;;;;;0.00;0.00;;;32.40;50.90;;;;;;5073070;28;20608;-63
2023/06/09 11:50:15;;;;;;;0.08;0.08;;;32.40;49.90;;;;;;5073025;28;20172;-63
2023/06/09 11:52:42;;;;;;;0.00;0.00;;;32.40;50.40;;;;;;5073099;28;20212;-64
2023/06/09 11:55:09;;;;;;;0.00;0.00;;;32.20;50.10;;;;;;5073060;28;20554;-64
2023/06/09 11:57:35;;;;;;;0.00;0.00;;;32.20;50.00;;;;;;5073075;28;20173;-63
2023/06/09 12:00:09;;;;;;;0.00;0.00;;;32.10;50.10;;;;;;5072935;28;20270;-63
2023/06/09 12:02:35;;;;;;;0.00;0.00;;;32.10;50.00;;;;;;5072953;28;20173;-63
2023/06/09 12:05:01;;;;;;;0.00;0.00;;;32.00;49.70;;;;;;5072769;28;20180;-63
2023/06/09 12:07:26;;;;;;;0.00;0.00;;;31.60;49.80;;;;;;5072798;28;20172;-63
2023/06/09 12:09:56;;;;;;;0.00;0.00;;;31.50;51.10;;;;;;5071770;28;20176;-63
2023/06/09 12:12:22;;;;;;;0.00;0.00;;;31.60;50.60;;;;;;5072926;28;20184;-63
2023/06/09 12:14:48;;;;;;;0.10;0.00;;;31.50;51.50;;;;;;5072574;28;20176;-63
2023/06/09 12:17:13;;;;;;;0.00;0.00;;;31.70;51.20;;;;;;5072585;28;20165;-63
2023/06/09 12:19:39;;;;;;;0.00;0.00;;;31.50;50.10;;;;;;5072673;28;20223;-63
2023/06/09 12:22:05;;;;;;;0.00;0.00;;;31.40;50.30;;;;;;5072574;28;20179;-63
2023/06/09 12:24:31;;;;;;;0.00;0.00;;;31.50;50.40;;;;;;5072535;28;20184;-63
2023/06/09 12:27:08;;;;;;;0.00;0.00;;;31.70;50.00;;;;;;5072274;28;20228;-63
2023/06/09 12:29:34;;;;;;;0.05;0.05;;;31.60;49.20;;;;;;5072362;28;20176;-63
2023/06/09 12:31:59;;;;;;;0.00;0.00;;;31.70;49.10;;;;;;5072360;28;20184;-63
2023/06/09 12:34:29;;;;;;;0.00;0.00;;;31.90;49.80;;;;;;5072494;28;20179;-63
2023/06/09 12:36:55;;;;;;;0.00;0.00;;;32.10;49.50;;;;;;5071095;28;20189;-63
2023/06/09 12:39:23;;;;;;;0.00;0.00;;;32.20;49.00;;;;;;5071487;28;20208;-64
2023/06/09 12:41:49;;;;;;;0.10;0.10;;;32.30;48.50;;;;;;5070970;28;20781;-63
2023/06/09 12:44:25;;;;;;;0.15;0.15;;;32.40;48.50;;;;;;5070461;28;20275;-63
2023/06/09 12:46:57;;;;;;;0.10;0.10;;;32.40;48.10;;;;;;5070574;28;20238;-63
2023/06/09 12:49:28;;;;;;;0.05;0.05;;;32.30;47.50;;;;;;5065840;28;20200;-63